createdAt,value
2022-11-23T00:01:23.016Z,25.57
2022-11-23T00:03:52.198Z,26.33
2022-11-23T00:06:19.379Z,26.23
2022-11-23T00:08:45.831Z,23.27
2022-11-23T00:11:12.497Z,27.13
2022-11-23T00:13:40.661Z,23.83
2022-11-23T00:16:08.685Z,24.63
2022-11-23T00:18:35.590Z,23.33
2022-11-23T00:21:14.789Z,26.00
2022-11-23T00:23:41.250Z,22.83
2022-11-23T00:26:07.772Z,24.80
2022-11-23T00:28:37.308Z,24.50
2022-11-23T00:31:03.860Z,24.50
2022-11-23T00:33:30.259Z,27.40
2022-11-23T00:36:00.687Z,26.33
2022-11-23T00:38:27.677Z,26.77
2022-11-23T00:40:57.828Z,27.93
2022-11-23T00:43:24.266Z,25.13
2022-11-23T00:45:51.133Z,25.33
2022-11-23T00:48:17.541Z,24.63
2022-11-23T00:50:43.924Z,25.10
2022-11-23T00:53:10.343Z,25.27
2022-11-23T00:55:36.743Z,28.37
2022-11-23T00:58:03.129Z,26.10
2022-11-23T01:00:29.557Z,25.20
2022-11-23T01:02:55.979Z,25.93
2022-11-23T01:05:22.369Z,23.83
2022-11-23T01:07:48.841Z,22.97
2022-11-23T01:10:15.310Z,25.50
2022-11-23T01:12:41.716Z,28.90
2022-11-23T01:15:08.472Z,24.07
2022-11-23T01:17:34.928Z,26.57
2022-11-23T01:20:01.349Z,27.20
2022-11-23T01:22:27.840Z,22.37
2022-11-23T01:24:54.243Z,27.43
2022-11-23T01:27:20.649Z,26.97
2022-11-23T01:29:47.070Z,25.80
2022-11-23T01:32:13.480Z,32.20
2022-11-23T01:34:39.895Z,26.87
2022-11-23T01:37:06.384Z,28.43
2022-11-23T01:39:32.995Z,26.00
2022-11-23T01:41:59.646Z,26.53
2022-11-23T01:44:30.403Z,25.97
2022-11-23T01:46:58.053Z,24.30
2022-11-23T01:49:25.787Z,28.37
2022-11-23T01:51:54.682Z,26.73
2022-11-23T01:54:30.588Z,25.20
2022-11-23T01:57:00.626Z,24.47
2022-11-23T01:59:28.069Z,24.03
2022-11-23T02:01:54.491Z,24.97
2022-11-23T02:04:25.683Z,26.10
2022-11-23T02:06:52.523Z,23.43
2022-11-23T02:09:19.803Z,26.93
2022-11-23T02:11:46.229Z,27.73
2022-11-23T02:14:12.889Z,24.70
2022-11-23T02:16:39.404Z,24.63
2022-11-23T02:19:08.377Z,24.77
2022-11-23T02:21:34.791Z,24.63
2022-11-23T02:24:04.252Z,25.77
2022-11-23T02:26:32.373Z,28.23
2022-11-23T02:29:10.972Z,25.40
2022-11-23T02:31:37.422Z,24.57
2022-11-23T02:34:04.210Z,27.53
2022-11-23T02:36:36.977Z,25.30
2022-11-23T02:39:06.766Z,27.60
2022-11-23T02:41:37.819Z,23.73
2022-11-23T02:44:05.512Z,25.57
2022-11-23T02:46:31.936Z,26.23
2022-11-23T02:48:58.403Z,25.60
2022-11-23T02:51:24.930Z,24.57
2022-11-23T02:53:51.371Z,26.37
2022-11-23T02:56:17.853Z,26.63
2022-11-23T02:58:44.245Z,25.50
2022-11-23T03:01:10.739Z,25.67
2022-11-23T03:03:37.185Z,26.73
2022-11-23T03:06:03.650Z,25.33
2022-11-23T03:08:30.036Z,27.67
2022-11-23T03:10:56.532Z,28.23
2022-11-23T03:13:22.954Z,29.63
2022-11-23T03:15:49.411Z,28.43
2022-11-23T03:18:15.858Z,27.77
2022-11-23T03:20:42.259Z,28.63
2022-11-23T03:23:08.669Z,26.80
2022-11-23T03:25:35.131Z,23.67
2022-11-23T03:28:01.531Z,25.80
2022-11-23T03:30:27.958Z,29.03
2022-11-23T03:32:54.406Z,29.07
2022-11-23T03:35:20.893Z,28.23
2022-11-23T03:37:47.289Z,30.00
2022-11-23T03:40:13.838Z,27.97
2022-11-23T03:42:40.901Z,27.87
2022-11-23T03:45:07.932Z,25.43
2022-11-23T03:47:34.422Z,25.20
2022-11-23T03:50:00.836Z,27.37
2022-11-23T03:52:27.303Z,28.00
2022-11-23T03:54:53.724Z,25.57
2022-11-23T03:57:20.130Z,31.17
2022-11-23T03:59:46.525Z,26.00
2022-11-23T04:02:12.953Z,29.30
2022-11-23T04:04:39.362Z,28.60
2022-11-23T04:07:05.891Z,32.50
2022-11-23T04:09:32.617Z,27.13
2022-11-23T04:11:59.246Z,27.53
2022-11-23T04:14:25.674Z,28.00
2022-11-23T04:16:52.148Z,32.07
2022-11-23T04:19:18.549Z,31.77
2022-11-23T04:21:44.967Z,31.07
2022-11-23T04:24:11.441Z,27.37
2022-11-23T04:26:37.947Z,28.50
2022-11-23T04:29:04.442Z,30.33
2022-11-23T04:31:30.874Z,25.73
2022-11-23T04:33:57.348Z,31.07
2022-11-23T04:36:23.806Z,28.97
2022-11-23T04:38:50.623Z,29.77
2022-11-23T04:41:17.025Z,29.93
2022-11-23T04:43:43.445Z,30.40
2022-11-23T04:46:11.398Z,28.30
2022-11-23T04:48:37.834Z,29.43
2022-11-23T04:51:04.269Z,31.47
2022-11-23T04:53:30.766Z,28.57
2022-11-23T04:55:57.284Z,29.57
2022-11-23T04:58:23.744Z,28.63
2022-11-23T05:00:50.305Z,31.93
2022-11-23T05:03:16.904Z,29.50
2022-11-23T05:05:43.458Z,27.60
2022-11-23T05:08:10.266Z,28.20
2022-11-23T05:10:37.195Z,26.50
2022-11-23T05:13:03.889Z,29.00
2022-11-23T05:15:30.316Z,48.00
2022-11-23T05:18:06.878Z,29.73
2022-11-23T05:20:34.015Z,27.63
2022-11-23T05:23:00.428Z,28.90
2022-11-23T05:25:27.138Z,24.53
2022-11-23T05:27:53.582Z,28.67
2022-11-23T05:30:20.002Z,25.90
2022-11-23T05:32:46.434Z,26.30
2022-11-23T05:35:12.889Z,23.93
2022-11-23T05:37:39.300Z,23.47
2022-11-23T05:40:05.986Z,24.47
2022-11-23T05:42:32.453Z,26.57
2022-11-23T05:44:59.007Z,23.17
2022-11-23T05:47:25.470Z,23.27
2022-11-23T05:49:51.956Z,24.03
2022-11-23T05:52:18.709Z,23.30
2022-11-23T05:54:45.117Z,30.00
2022-11-23T05:57:11.620Z,22.83
2022-11-23T05:59:38.029Z,23.37
2022-11-23T06:02:04.562Z,23.57
2022-11-23T06:04:31.035Z,23.67
2022-11-23T06:07:00.959Z,23.23
2022-11-23T06:09:27.941Z,26.30
2022-11-23T06:11:54.383Z,23.47
2022-11-23T06:14:20.781Z,21.83
2022-11-23T06:16:47.482Z,23.23
2022-11-23T06:19:13.902Z,22.10
2022-11-23T06:21:40.286Z,23.93
2022-11-23T06:24:06.775Z,25.50
2022-11-23T06:26:33.251Z,25.83
2022-11-23T06:28:59.668Z,25.00
2022-11-23T06:31:26.079Z,25.00
2022-11-23T06:33:53.072Z,26.23
2022-11-23T06:36:19.725Z,26.53
2022-11-23T06:38:46.183Z,25.20
2022-11-23T06:41:12.629Z,23.73
2022-11-23T06:43:39.053Z,24.03
2022-11-23T06:46:06.819Z,27.83
2022-11-23T06:48:33.724Z,23.17
2022-11-23T06:51:00.312Z,26.00
2022-11-23T06:53:27.306Z,25.97
2022-11-23T06:55:53.838Z,22.90
2022-11-23T06:58:20.272Z,30.03
2022-11-23T07:00:46.709Z,27.60
2022-11-23T07:03:19.835Z,28.23
2022-11-23T07:05:46.437Z,28.97
2022-11-23T07:08:12.875Z,28.73
2022-11-23T07:10:41.518Z,26.83
2022-11-23T07:13:13.009Z,23.83
2022-11-23T07:15:41.060Z,26.37
2022-11-23T07:18:08.207Z,24.27
2022-11-23T07:20:34.938Z,25.97
2022-11-23T07:23:02.218Z,26.33
2022-11-23T07:25:29.276Z,27.50
2022-11-23T07:27:56.626Z,27.50
2022-11-23T07:30:29.001Z,25.93
2022-11-23T07:33:14.084Z,38.73
2022-11-23T07:35:41.084Z,28.00
2022-11-23T07:38:09.105Z,27.53
2022-11-23T07:40:38.789Z,30.20
2022-11-23T07:43:06.044Z,29.70
2022-11-23T07:45:33.278Z,28.13
2022-11-23T07:47:59.709Z,29.70
2022-11-23T07:50:26.365Z,28.03
2022-11-23T07:52:52.808Z,30.53
2022-11-23T07:55:19.227Z,31.67
2022-11-23T07:57:45.668Z,28.13
2022-11-23T08:00:12.622Z,29.80
2022-11-23T08:02:52.876Z,30.93
2022-11-23T08:05:26.756Z,33.03
2022-11-23T08:07:58.107Z,29.23
2022-11-23T08:10:24.942Z,28.40
2022-11-23T08:12:51.590Z,27.97
2022-11-23T08:15:18.357Z,28.80
2022-11-23T08:17:44.940Z,25.47
2022-11-23T08:20:11.592Z,25.97
2022-11-23T08:22:38.026Z,28.67
2022-11-23T08:25:04.605Z,28.03
2022-11-23T08:27:31.039Z,30.23
2022-11-23T08:29:57.472Z,30.07
2022-11-23T08:32:23.888Z,29.10
2022-11-23T08:34:50.340Z,27.67
2022-11-23T08:37:16.734Z,32.37
2022-11-23T08:39:43.139Z,31.70
2022-11-23T08:42:10.256Z,33.80
2022-11-23T08:44:36.794Z,32.67
2022-11-23T08:47:03.227Z,30.57
2022-11-23T08:49:29.664Z,31.73
2022-11-23T08:51:56.204Z,28.43
2022-11-23T08:54:24.279Z,31.30
2022-11-23T08:56:51.353Z,29.23
2022-11-23T08:59:18.667Z,33.43
2022-11-23T09:01:45.409Z,30.03
2022-11-23T09:04:16.377Z,32.53
2022-11-23T09:06:45.663Z,33.53
2022-11-23T09:09:12.136Z,33.67
2022-11-23T09:11:38.606Z,35.07
2022-11-23T09:14:05.053Z,35.20
2022-11-23T09:16:34.061Z,34.83
2022-11-23T09:19:00.806Z,34.47
2022-11-23T09:21:33.471Z,35.77
2022-11-23T09:23:59.906Z,34.50
2022-11-23T09:26:26.954Z,33.37
2022-11-23T09:28:53.414Z,40.73
2022-11-23T09:31:19.879Z,35.87
2022-11-23T09:33:46.337Z,35.50
2022-11-23T09:36:12.824Z,37.33
2022-11-23T09:38:55.766Z,34.67
2022-11-23T09:41:26.106Z,32.77
2022-11-23T09:44:11.493Z,36.33
2022-11-23T09:46:44.985Z,33.17
2022-11-23T09:49:20.303Z,35.10
2022-11-23T09:51:48.121Z,36.27
2022-11-23T09:54:30.528Z,35.70
2022-11-23T09:57:01.662Z,34.50
2022-11-23T09:59:32.246Z,28.83
2022-11-23T10:01:58.970Z,35.53
2022-11-23T10:04:25.686Z,34.40
2022-11-23T10:06:57.675Z,35.03
2022-11-23T10:09:24.818Z,38.27
2022-11-23T10:12:09.824Z,34.43
2022-11-23T10:14:36.245Z,34.13
2022-11-23T10:17:11.867Z,29.37
2022-11-23T10:19:56.728Z,30.67
2022-11-23T10:22:38.501Z,31.00
2022-11-23T10:25:10.528Z,29.50
2022-11-23T10:27:36.980Z,32.00
2022-11-23T10:30:03.725Z,32.87
2022-11-23T10:32:32.824Z,32.33
2022-11-23T10:35:17.403Z,31.10
2022-11-23T10:37:44.176Z,29.17
2022-11-23T10:40:31.296Z,30.10
2022-11-23T10:42:59.493Z,29.70
2022-11-23T10:45:27.572Z,34.73
2022-11-23T10:48:00.960Z,28.93
2022-11-23T10:50:37.576Z,32.40
2022-11-23T10:53:10.182Z,31.87
2022-11-23T10:55:50.338Z,31.60
2022-11-23T10:58:27.304Z,33.77
2022-11-23T11:01:01.238Z,31.93
2022-11-23T11:03:30.408Z,36.03
2022-11-23T11:06:12.868Z,34.27
2022-11-23T11:08:56.033Z,34.20
2022-11-23T11:11:46.001Z,37.33
2022-11-23T11:14:17.471Z,40.73
2022-11-23T11:17:02.016Z,39.37
2022-11-23T11:19:28.499Z,38.87
2022-11-23T11:21:55.468Z,38.97
2022-11-23T11:24:33.521Z,37.13
2022-11-23T11:27:01.475Z,38.47
2022-11-23T11:29:47.532Z,43.37
2022-11-23T11:32:34.234Z,35.77
2022-11-23T11:35:08.303Z,33.23
2022-11-23T11:37:39.381Z,35.20
2022-11-23T11:40:28.948Z,35.27
2022-11-23T11:42:55.349Z,37.63
2022-11-23T11:45:59.760Z,34.93
2022-11-23T11:48:32.786Z,37.13
2022-11-23T11:51:11.829Z,32.27
2022-11-23T11:53:48.983Z,30.37
2022-11-23T11:56:15.730Z,32.23
2022-11-23T11:58:46.119Z,38.53
2022-11-23T12:01:31.056Z,36.87
2022-11-23T12:04:00.687Z,33.33
2022-11-23T12:06:32.317Z,37.90
2022-11-23T12:08:58.809Z,35.53
2022-11-23T12:11:25.336Z,30.73
2022-11-23T12:13:53.896Z,32.10
2022-11-23T12:16:26.323Z,30.93
2022-11-23T12:19:11.217Z,31.87
2022-11-23T12:21:37.700Z,32.43
2022-11-23T12:24:12.768Z,29.50
2022-11-23T12:26:51.968Z,33.90
2022-11-23T12:29:22.427Z,33.83
2022-11-23T12:32:12.316Z,30.37
2022-11-23T12:34:38.772Z,31.53
2022-11-23T12:37:05.215Z,31.97
2022-11-23T12:39:41.687Z,32.07
2022-11-23T12:42:26.916Z,34.67
2022-11-23T12:44:53.394Z,36.67
2022-11-23T12:47:38.141Z,35.57
2022-11-23T12:50:10.475Z,32.03
2022-11-23T12:52:55.342Z,32.77
2022-11-23T12:55:39.506Z,33.67
2022-11-23T12:58:10.281Z,37.73
2022-11-23T13:00:39.772Z,35.87
2022-11-23T13:03:12.279Z,35.60
2022-11-23T13:05:38.682Z,37.30
2022-11-23T13:08:18.606Z,31.70
2022-11-23T13:11:04.433Z,35.80
2022-11-23T13:13:37.181Z,32.00
2022-11-23T13:16:03.966Z,32.37
2022-11-23T13:18:49.209Z,29.13
2022-11-23T13:21:15.730Z,31.80
2022-11-23T13:23:42.335Z,30.63
2022-11-23T13:26:12.761Z,33.27
2022-11-23T13:28:39.249Z,31.07
2022-11-23T13:31:23.985Z,30.83
2022-11-23T13:33:51.831Z,30.43
2022-11-23T13:36:56.489Z,29.83
2022-11-23T13:39:35.111Z,30.60
2022-11-23T13:42:01.944Z,30.83
2022-11-23T13:44:30.359Z,30.27
2022-11-23T13:47:12.340Z,33.80
2022-11-23T13:49:43.285Z,31.87
2022-11-23T13:52:24.456Z,31.53
2022-11-23T13:54:54.880Z,32.40
2022-11-23T13:57:21.797Z,30.07
2022-11-23T13:59:48.369Z,29.83
2022-11-23T14:02:14.879Z,35.40
2022-11-23T14:04:45.496Z,36.47
2022-11-23T14:07:15.244Z,35.80
2022-11-23T14:09:57.094Z,35.37
2022-11-23T14:12:29.536Z,31.60
2022-11-23T14:14:59.099Z,33.87
2022-11-23T14:17:34.586Z,33.33
2022-11-23T14:20:13.192Z,33.23
2022-11-23T14:22:54.912Z,35.30
2022-11-23T14:25:40.433Z,31.77
2022-11-23T14:28:09.657Z,30.63
2022-11-23T14:30:41.141Z,31.63
2022-11-23T14:33:23.037Z,32.10
2022-11-23T14:35:52.488Z,56.87
2022-11-23T14:38:34.564Z,36.00
2022-11-23T14:41:08.398Z,29.87
2022-11-23T14:43:36.891Z,34.87
2022-11-23T14:46:06.886Z,42.73
2022-11-23T14:48:34.867Z,34.83
2022-11-23T14:51:01.469Z,32.97
2022-11-23T14:53:29.811Z,27.80
2022-11-23T14:56:34.990Z,29.37
2022-11-23T14:59:03.387Z,30.03
2022-11-23T15:01:30.103Z,29.10
2022-11-23T15:03:58.006Z,26.77
2022-11-23T15:06:30.948Z,27.93
2022-11-23T15:09:02.665Z,27.47
2022-11-23T15:11:30.816Z,28.47
2022-11-23T15:14:03.367Z,26.67
2022-11-23T15:16:38.576Z,28.80
2022-11-23T15:19:26.664Z,29.83
2022-11-23T15:21:53.292Z,28.80
2022-11-23T15:24:28.301Z,30.80
2022-11-23T15:27:09.512Z,26.87
2022-11-23T15:29:39.208Z,32.23
2022-11-23T15:32:34.936Z,31.00
2022-11-23T15:35:04.478Z,28.57
2022-11-23T15:37:31.480Z,27.50
2022-11-23T15:39:58.421Z,28.77
2022-11-23T15:42:25.993Z,29.03
2022-11-23T15:44:54.238Z,29.87
2022-11-23T15:47:39.448Z,27.80
2022-11-23T15:50:09.212Z,28.27
2022-11-23T15:52:37.836Z,28.20
2022-11-23T15:55:11.607Z,28.93
2022-11-23T15:57:39.680Z,30.60
2022-11-23T16:00:07.629Z,27.27
2022-11-23T16:02:35.971Z,27.17
2022-11-23T16:05:12.568Z,28.37
2022-11-23T16:07:53.470Z,28.20
2022-11-23T16:10:24.760Z,28.63
2022-11-23T16:12:59.014Z,29.33
2022-11-23T16:18:39.523Z,30.43
2022-11-23T16:21:06.183Z,29.43
2022-11-23T16:23:35.436Z,31.47
2022-11-23T16:26:06.299Z,31.13
2022-11-23T16:28:34.735Z,29.03
2022-11-23T16:31:01.569Z,29.50
2022-11-23T16:33:28.794Z,26.63
2022-11-23T16:35:55.514Z,30.33
2022-11-23T16:38:22.899Z,31.97
2022-11-23T16:40:49.882Z,29.37
2022-11-23T16:43:20.589Z,29.00
2022-11-23T16:45:49.254Z,27.10
2022-11-23T16:48:36.845Z,29.07
2022-11-23T16:51:03.454Z,26.73
2022-11-23T16:53:47.092Z,29.53
2022-11-23T16:56:19.983Z,32.58
2022-11-23T16:58:47.107Z,31.30
2022-11-23T17:01:18.859Z,28.40
2022-11-23T17:03:45.617Z,30.30
2022-11-23T17:06:14.381Z,26.10
2022-11-23T17:08:41.702Z,33.73
2022-11-23T17:11:12.464Z,36.43
2022-11-23T17:13:39.044Z,32.20
2022-11-23T17:16:05.660Z,31.50
2022-11-23T17:18:32.161Z,30.63
2022-11-23T17:20:58.676Z,31.07
2022-11-23T17:23:25.322Z,29.10
2022-11-23T17:25:51.883Z,29.13
2022-11-23T17:28:21.424Z,29.87
2022-11-23T17:30:48.172Z,29.10
2022-11-23T17:33:14.778Z,29.23
2022-11-23T17:35:41.357Z,28.03
2022-11-23T17:38:13.627Z,32.73
2022-11-23T17:40:40.323Z,32.67
2022-11-23T17:43:06.830Z,28.93
2022-11-23T17:45:33.907Z,32.83
2022-11-23T17:48:03.318Z,32.67
2022-11-23T17:50:30.407Z,28.97
2022-11-23T17:52:57.423Z,30.37
2022-11-23T17:55:23.916Z,31.43
2022-11-23T17:57:50.522Z,34.97
2022-11-23T18:00:21.768Z,33.43
2022-11-23T18:02:48.709Z,31.40
2022-11-23T18:05:21.125Z,31.97
2022-11-23T18:07:48.997Z,30.03
2022-11-23T18:10:15.905Z,30.33
2022-11-23T18:12:44.627Z,31.77
2022-11-23T18:15:12.014Z,30.93
2022-11-23T18:17:38.692Z,35.83
2022-11-23T18:20:25.474Z,33.43
2022-11-23T18:22:52.107Z,36.53
2022-11-23T18:25:18.819Z,34.57
2022-11-23T18:27:45.517Z,34.07
2022-11-23T18:30:13.711Z,30.60
2022-11-23T18:32:40.551Z,34.77
2022-11-23T18:35:07.672Z,38.67
2022-11-23T18:37:34.315Z,40.93
2022-11-23T18:40:00.957Z,36.07
2022-11-23T18:42:27.551Z,32.90
2022-11-23T18:44:54.116Z,33.73
2022-11-23T18:47:20.882Z,28.90
2022-11-23T18:49:47.538Z,26.53
2022-11-23T18:52:14.185Z,27.17
2022-11-23T18:54:40.743Z,28.87
2022-11-23T18:57:08.222Z,38.07
2022-11-23T18:59:56.941Z,37.03
2022-11-23T19:02:21.577Z,36.87
2022-11-23T19:04:48.580Z,38.60
2022-11-23T19:07:15.463Z,40.20
2022-11-23T19:09:45.222Z,42.53
2022-11-23T19:12:31.911Z,40.33
2022-11-23T19:14:58.666Z,37.57
2022-11-23T19:17:25.543Z,37.97
2022-11-23T19:19:52.364Z,41.17
2022-11-23T19:22:20.359Z,38.43
2022-11-23T19:24:47.413Z,38.13
2022-11-23T19:27:14.164Z,39.23
2022-11-23T19:29:40.679Z,40.93
2022-11-23T19:32:07.387Z,40.80
2022-11-23T19:34:35.034Z,42.73
2022-11-23T19:37:02.036Z,41.93
2022-11-23T19:39:28.758Z,37.13
2022-11-23T19:41:57.604Z,36.80
2022-11-23T19:44:24.609Z,37.80
2022-11-23T19:46:51.524Z,37.67
2022-11-23T19:49:18.603Z,38.40
2022-11-23T19:51:51.334Z,38.27
2022-11-23T19:54:19.505Z,41.20
2022-11-23T19:56:46.303Z,38.77
2022-11-23T19:59:13.498Z,38.83
2022-11-23T20:01:40.437Z,35.87
2022-11-23T20:04:09.647Z,39.23
2022-11-23T20:06:38.143Z,39.80
2022-11-23T20:09:09.738Z,39.77
2022-11-23T20:11:36.961Z,37.97
2022-11-23T20:14:04.225Z,32.67
2022-11-23T20:16:33.729Z,33.67
2022-11-23T20:19:01.586Z,34.83
2022-11-23T20:21:29.050Z,31.53
2022-11-23T20:24:04.325Z,33.90
2022-11-23T20:26:31.615Z,29.40
2022-11-23T20:28:58.620Z,30.83
2022-11-23T20:31:26.632Z,32.00
2022-11-23T20:33:54.054Z,30.00
2022-11-23T20:36:22.257Z,32.93
2022-11-23T20:38:49.168Z,32.03
2022-11-23T20:41:17.360Z,34.33
2022-11-23T20:43:45.357Z,36.70
2022-11-23T20:46:12.250Z,36.90
2022-11-23T20:48:40.663Z,35.47
2022-11-23T20:51:10.767Z,35.83
2022-11-23T20:53:37.637Z,33.20
2022-11-23T20:56:05.191Z,28.33
2022-11-23T20:58:32.245Z,26.17
2022-11-23T21:01:05.639Z,24.03
2022-11-23T21:03:33.284Z,24.50
2022-11-23T21:06:07.161Z,25.30
2022-11-23T21:08:35.010Z,26.40
2022-11-23T21:11:29.686Z,25.37
2022-11-23T21:14:13.900Z,21.83
2022-11-23T21:17:14.244Z,22.53
2022-11-23T21:19:43.770Z,25.67
2022-11-23T21:22:11.626Z,27.77
2022-11-23T21:24:38.369Z,26.30
2022-11-23T21:27:05.698Z,25.93
2022-11-23T21:29:32.644Z,25.97
2022-11-23T21:32:01.519Z,25.03
2022-11-23T21:34:28.923Z,27.87
2022-11-23T21:36:56.202Z,26.50
2022-11-23T21:39:23.149Z,24.13
2022-11-23T21:41:50.550Z,24.47
2022-11-23T21:44:17.530Z,23.90
2022-11-23T21:46:44.172Z,22.50
2022-11-23T21:49:11.136Z,24.70
2022-11-23T21:51:38.218Z,24.53
2022-11-23T21:54:06.214Z,21.97
2022-11-23T21:56:32.815Z,20.00
2022-11-23T21:58:59.468Z,24.23
2022-11-23T22:01:26.168Z,22.93
2022-11-23T22:03:54.020Z,25.10
2022-11-23T22:06:21.046Z,24.60
2022-11-23T22:08:48.771Z,26.13
2022-11-23T22:11:22.530Z,24.27
2022-11-23T22:13:52.589Z,27.40
2022-11-23T22:16:20.585Z,26.13
2022-11-23T22:18:52.651Z,25.20
2022-11-23T22:21:22.642Z,25.50
2022-11-23T22:23:49.271Z,27.53
2022-11-23T22:26:16.803Z,27.97
2022-11-23T22:28:44.859Z,29.17
2022-11-23T22:31:12.552Z,23.97
2022-11-23T22:33:39.368Z,22.43
2022-11-23T22:36:05.926Z,23.87
2022-11-23T22:38:32.428Z,25.17
2022-11-23T22:40:59.695Z,24.80
2022-11-23T22:43:26.609Z,26.27
2022-11-23T22:45:53.467Z,26.23
2022-11-23T22:48:20.135Z,27.87
2022-11-23T22:51:01.394Z,27.93
2022-11-23T22:53:28.357Z,25.00
2022-11-23T22:55:59.028Z,26.63
2022-11-23T22:58:25.535Z,26.93
2022-11-23T23:00:52.008Z,26.83
2022-11-23T23:03:18.617Z,25.93
2022-11-23T23:05:53.614Z,27.47
2022-11-23T23:08:20.088Z,27.63
2022-11-23T23:10:46.570Z,26.20
2022-11-23T23:13:13.112Z,25.73
2022-11-23T23:15:39.909Z,24.87
2022-11-23T23:18:07.266Z,25.13
2022-11-23T23:20:37.408Z,27.17
2022-11-23T23:23:04.298Z,27.43
2022-11-23T23:25:31.094Z,26.47
2022-11-23T23:27:58.221Z,26.73
2022-11-23T23:30:24.900Z,29.10
2022-11-23T23:32:53.528Z,26.73
2022-11-23T23:35:20.571Z,26.27
2022-11-23T23:37:50.947Z,25.83
2022-11-23T23:40:17.686Z,26.13
2022-11-23T23:42:44.207Z,26.07
2022-11-23T23:45:10.710Z,26.10
2022-11-23T23:47:37.952Z,25.57
2022-11-23T23:50:04.789Z,22.73
2022-11-23T23:52:31.289Z,23.90
2022-11-23T23:54:57.761Z,22.83
2022-11-23T23:57:24.287Z,25.23
2022-11-23T23:59:50.764Z,22.33
